Time,TemperatureF,DewpointF,PressureIn,WindDirection,WindDirectionDegrees,WindSpeedMPH,WindSpeedGustMPH,Humidity,HourlyPrecipIn,Conditions,Clouds,dailyrainin,SoftwareType,DateUTC
2013-01-13 00:00:00,44.8,38.0,29.82,SW,225,0.0,0.0,77,0.00,,---,0.00,VWS V14.01,2013-01-13 05:00:00,
2013-01-13 00:01:00,44.6,37.8,29.82,SW,225,0.0,0.0,77,0.00,,---,0.00,VWS V14.01,2013-01-13 05:01:00,
2013-01-13 00:06:00,44.4,37.7,29.82,SW,225,0.0,0.0,77,0.00,,---,0.00,VWS V14.01,2013-01-13 05:06:00,
2013-01-13 00:11:00,44.2,37.2,29.82,SW,225,0.0,0.0,76,0.00,,---,0.00,VWS V14.01,2013-01-13 05:11:00,
2013-01-13 00:16:00,44.2,36.8,29.82,SW,225,0.0,0.0,75,0.00,,---,0.00,VWS V14.01,2013-01-13 05:16:00,
2013-01-13 00:21:00,44.1,35.6,29.82,SW,225,0.0,0.0,72,0.00,,---,0.00,VWS V14.01,2013-01-13 05:21:00,
2013-01-13 00:26:00,44.1,34.9,29.82,SW,225,0.0,0.0,70,0.00,,---,0.00,VWS V14.01,2013-01-13 05:26:00,
2013-01-13 00:31:00,43.9,34.7,29.82,SW,225,0.0,0.0,70,0.00,,---,0.00,VWS V14.01,2013-01-13 05:31:00,
2013-01-13 00:36:00,43.5,34.4,29.79,SW,225,0.0,0.0,70,0.00,,---,0.00,VWS V14.01,2013-01-13 05:36:00,
2013-01-13 00:41:00,43.3,34.9,29.79,SW,225,0.0,0.0,72,0.00,,---,0.00,VWS V14.01,2013-01-13 05:41:00,
2013-01-13 00:46:00,43.0,34.9,29.79,SW,225,0.0,0.0,73,0.00,,---,0.00,VWS V14.01,2013-01-13 05:46:00,
2013-01-13 00:51:00,42.4,35.1,29.82,SW,225,0.0,0.0,75,0.00,,---,0.00,VWS V14.01,2013-01-13 05:51:00,
2013-01-13 00:56:00,42.1,34.7,29.82,SW,225,0.0,0.0,75,0.00,,---,0.00,VWS V14.01,2013-01-13 05:56:00,
2013-01-13 01:01:00,41.7,34.7,29.82,SW,225,0.0,0.0,76,0.00,,---,0.00,VWS V14.01,2013-01-13 06:01:00,
2013-01-13 01:06:00,41.5,34.9,29.76,SW,225,0.0,0.0,77,0.00,,---,0.00,VWS V14.01,2013-01-13 06:06:00,
2013-01-13 01:11:00,41.2,35.5,29.76,SW,225,0.0,0.0,80,0.00,,---,0.00,VWS V14.01,2013-01-13 06:11:00,
2013-01-13 01:16:00,41.0,35.6,29.76,SW,225,0.0,0.0,81,0.00,,---,0.00,VWS V14.01,2013-01-13 06:16:00,
2013-01-13 01:21:00,40.8,36.1,29.76,SW,225,0.0,0.0,83,0.00,,---,0.00,VWS V14.01,2013-01-13 06:21:00,
2013-01-13 01:26:00,40.6,35.9,29.76,SW,225,0.0,0.0,83,0.00,,---,0.00,VWS V14.01,2013-01-13 06:26:00,
2013-01-13 01:31:00,40.6,36.5,29.76,SW,225,0.0,0.0,85,0.00,,---,0.00,VWS V14.01,2013-01-13 06:31:00,
2013-01-13 01:36:00,40.5,36.3,29.74,SW,225,0.0,0.0,85,0.00,,---,0.00,VWS V14.01,2013-01-13 06:36:00,
2013-01-13 01:41:00,40.5,36.6,29.74,SW,225,0.0,0.0,86,0.00,,---,0.00,VWS V14.01,2013-01-13 06:41:00,
2013-01-13 01:46:00,40.3,36.4,29.74,SW,225,0.0,0.0,86,0.00,,---,0.00,VWS V14.01,2013-01-13 06:46:00,
2013-01-13 01:51:00,40.1,36.3,29.74,SW,225,0.0,0.0,86,0.00,,---,0.00,VWS V14.01,2013-01-13 06:51:00,
2013-01-13 01:56:00,39.9,36.1,29.74,SW,225,0.0,0.0,86,0.00,,---,0.00,VWS V14.01,2013-01-13 06:56:00,
2013-01-13 02:01:00,39.7,35.9,29.74,SW,225,0.0,0.0,86,0.00,,---,0.00,VWS V14.01,2013-01-13 07:01:00,
2013-01-13 02:06:00,39.6,35.7,29.74,SW,225,0.0,0.0,86,0.00,,---,0.00,VWS V14.01,2013-01-13 07:06:00,
2013-01-13 02:11:00,39.4,35.2,29.74,SW,225,0.0,0.0,85,0.00,,---,0.00,VWS V14.01,2013-01-13 07:11:00,
2013-01-13 02:16:00,39.2,35.1,29.74,SW,225,0.0,0.0,85,0.00,,---,0.00,VWS V14.01,2013-01-13 07:16:00,
2013-01-13 02:21:00,39.0,34.9,29.74,SW,225,0.0,0.0,85,0.00,,---,0.00,VWS V14.01,2013-01-13 07:21:00,
2013-01-13 02:26:00,38.8,34.7,29.74,SW,225,0.0,0.0,85,0.00,,---,0.00,VWS V14.01,2013-01-13 07:26:00,
2013-01-13 02:31:00,38.7,34.5,29.74,SW,225,0.0,0.0,85,0.00,,---,0.00,VWS V14.01,2013-01-13 07:31:00,
2013-01-13 02:36:00,38.5,34.4,29.76,SW,225,0.0,0.0,85,0.00,,---,0.00,VWS V14.01,2013-01-13 07:36:00,
2013-01-13 02:41:00,38.3,34.2,29.76,SW,225,0.0,0.0,85,0.00,,---,0.00,VWS V14.01,2013-01-13 07:41:00,
2013-01-13 02:46:00,38.1,34.3,29.76,SW,225,0.0,0.0,86,0.00,,---,0.00,VWS V14.01,2013-01-13 07:46:00,
2013-01-13 02:51:00,37.9,34.1,29.76,SW,225,0.0,0.0,86,0.00,,---,0.00,VWS V14.01,2013-01-13 07:51:00,
2013-01-13 02:56:00,37.8,34.2,29.76,SW,225,0.0,0.0,87,0.00,,---,0.00,VWS V14.01,2013-01-13 07:56:00,
2013-01-13 03:01:00,37.6,34.1,29.76,SW,225,0.0,0.0,87,0.00,,---,0.00,VWS V14.01,2013-01-13 08:01:00,
2013-01-13 03:06:00,37.6,34.1,29.76,SW,225,0.0,0.0,87,0.00,,---,0.00,VWS V14.01,2013-01-13 08:06:00,
2013-01-13 03:11:00,37.4,34.2,29.76,SW,225,0.0,0.0,88,0.00,,---,0.00,VWS V14.01,2013-01-13 08:11:00,
2013-01-13 03:16:00,37.4,34.2,29.76,SW,225,0.0,0.0,88,0.00,,---,0.00,VWS V14.01,2013-01-13 08:16:00,
2013-01-13 03:21:00,37.4,34.5,29.76,SW,225,0.0,0.0,89,0.00,,---,0.00,VWS V14.01,2013-01-13 08:21:00,
2013-01-13 03:26:00,37.2,34.6,29.76,SW,225,0.0,0.0,90,0.00,,---,0.00,VWS V14.01,2013-01-13 08:26:00,
2013-01-13 03:31:00,37.0,34.7,29.76,SW,225,0.0,0.0,91,0.00,,---,0.00,VWS V14.01,2013-01-13 08:31:00,
2013-01-13 03:36:00,37.0,34.7,29.74,SW,225,0.0,0.0,91,0.00,,---,0.00,VWS V14.01,2013-01-13 08:36:00,
2013-01-13 03:41:00,37.0,34.9,29.74,SW,225,0.0,0.0,92,0.00,,---,0.00,VWS V14.01,2013-01-13 08:41:00,
2013-01-13 03:46:00,37.0,35.2,29.74,SW,225,0.0,0.0,93,0.00,,---,0.00,VWS V14.01,2013-01-13 08:46:00,
2013-01-13 03:50:00,37.0,35.2,29.74,SW,225,0.0,0.0,93,0.00,,---,0.00,VWS V14.01,2013-01-13 08:50:00,
2013-01-13 03:55:00,37.0,35.5,29.74,SW,225,0.0,0.0,94,0.00,,---,0.00,VWS V14.01,2013-01-13 08:55:00,
2013-01-13 04:00:00,37.0,35.5,29.74,SW,225,0.0,0.0,94,0.00,,---,0.00,VWS V14.01,2013-01-13 09:00:00,
2013-01-13 04:05:00,37.0,35.5,29.74,SW,225,0.0,0.0,94,0.00,,---,0.00,VWS V14.01,2013-01-13 09:05:00,
2013-01-13 04:10:00,37.0,35.5,29.74,SW,225,0.0,0.0,94,0.00,,---,0.00,VWS V14.01,2013-01-13 09:10:00,
2013-01-13 04:15:00,37.0,35.5,29.74,SW,225,0.0,0.0,94,0.00,,---,0.00,VWS V14.01,2013-01-13 09:15:00,
2013-01-13 04:20:00,36.9,35.3,29.74,SW,225,0.0,0.0,94,0.00,,---,0.00,VWS V14.01,2013-01-13 09:20:00,
2013-01-13 04:25:00,36.9,35.3,29.74,SW,225,0.0,0.0,94,0.00,,---,0.00,VWS V14.01,2013-01-13 09:25:00,
2013-01-13 04:30:00,36.9,35.3,29.74,SW,225,0.0,0.0,94,0.00,,---,0.00,VWS V14.01,2013-01-13 09:30:00,
2013-01-13 04:35:00,36.7,35.4,29.74,SW,225,0.0,0.0,95,0.00,,---,0.00,VWS V14.01,2013-01-13 09:35:00,
2013-01-13 04:40:00,36.7,35.4,29.74,SW,225,0.0,0.0,95,0.00,,---,0.00,VWS V14.01,2013-01-13 09:40:00,
2013-01-13 04:45:00,36.7,35.4,29.74,SW,225,0.0,0.0,95,0.00,,---,0.00,VWS V14.01,2013-01-13 09:45:00,
2013-01-13 04:50:00,36.5,35.2,29.74,SW,225,0.0,0.0,95,0.00,,---,0.00,VWS V14.01,2013-01-13 09:50:00,
2013-01-13 04:55:00,36.5,35.2,29.74,SW,225,0.0,0.0,95,0.00,,---,0.00,VWS V14.01,2013-01-13 09:55:00,
2013-01-13 05:00:00,36.5,35.2,29.74,SW,225,0.0,0.0,95,0.00,,---,0.00,VWS V14.01,2013-01-13 10:00:00,
2013-01-13 05:05:00,36.3,35.0,29.68,SW,225,0.0,0.0,95,0.00,,---,0.00,VWS V14.01,2013-01-13 10:05:00,
2013-01-13 05:10:00,36.3,35.3,29.68,SW,225,0.0,0.0,96,0.00,,---,0.00,VWS V14.01,2013-01-13 10:10:00,
2013-01-13 05:15:00,36.3,35.3,29.68,SW,225,0.0,0.0,96,0.00,,---,0.00,VWS V14.01,2013-01-13 10:15:00,
2013-01-13 05:20:00,36.3,35.3,29.71,SW,225,0.0,0.0,96,0.00,,---,0.00,VWS V14.01,2013-01-13 10:20:00,
2013-01-13 05:25:00,36.3,35.3,29.71,SW,225,0.0,0.0,96,0.00,,---,0.00,VWS V14.01,2013-01-13 10:25:00,
2013-01-13 05:30:00,36.1,35.1,29.71,SW,225,0.0,0.0,96,0.00,,---,0.00,VWS V14.01,2013-01-13 10:30:00,
2013-01-13 05:35:00,36.1,35.1,29.68,SW,225,0.0,0.0,96,0.00,,---,0.00,VWS V14.01,2013-01-13 10:35:00,
2013-01-13 05:40:00,36.0,34.9,29.68,SW,225,0.0,0.0,96,0.00,,---,0.00,VWS V14.01,2013-01-13 10:40:00,
2013-01-13 05:45:00,36.0,34.9,29.68,SW,225,0.0,0.0,96,0.00,,---,0.00,VWS V14.01,2013-01-13 10:45:00,
2013-01-13 05:50:00,35.8,34.8,29.71,SW,225,0.0,0.0,96,0.00,,---,0.00,VWS V14.01,2013-01-13 10:50:00,
2013-01-13 05:55:00,35.8,35.0,29.71,SW,225,0.0,0.0,97,0.00,,---,0.00,VWS V14.01,2013-01-13 10:55:00,
2013-01-13 06:00:00,35.8,35.0,29.71,SW,225,0.0,0.0,97,0.00,,---,0.00,VWS V14.01,2013-01-13 11:00:00,
2013-01-13 06:05:00,35.8,35.0,29.74,SW,225,0.0,0.0,97,0.00,,---,0.00,VWS V14.01,2013-01-13 11:05:00,
2013-01-13 06:10:00,35.6,34.8,29.74,SW,225,0.0,0.0,97,0.00,,---,0.00,VWS V14.01,2013-01-13 11:10:00,
2013-01-13 06:15:00,35.6,34.8,29.74,SW,225,0.0,0.0,97,0.00,,---,0.00,VWS V14.01,2013-01-13 11:15:00,
2013-01-13 06:20:00,35.6,34.8,29.74,SW,225,0.0,0.0,97,0.00,,---,0.00,VWS V14.01,2013-01-13 11:20:00,
2013-01-13 06:25:00,35.6,34.8,29.74,SW,225,0.0,0.0,97,0.00,,---,0.00,VWS V14.01,2013-01-13 11:25:00,
2013-01-13 06:30:00,35.6,34.8,29.74,SW,225,0.0,0.0,97,0.00,,---,0.00,VWS V14.01,2013-01-13 11:30:00,
2013-01-13 06:35:00,35.6,34.8,29.74,SW,225,0.0,0.0,97,0.00,,---,0.00,VWS V14.01,2013-01-13 11:35:00,
2013-01-13 06:40:00,35.4,34.9,29.74,SW,225,0.0,0.0,98,0.00,,---,0.00,VWS V14.01,2013-01-13 11:40:00,
2013-01-13 06:45:00,35.4,34.9,29.74,SW,225,0.0,0.0,98,0.00,,---,0.00,VWS V14.01,2013-01-13 11:45:00,
2013-01-13 06:50:00,35.4,34.9,29.68,SW,225,0.0,0.0,98,0.00,,---,0.00,VWS V14.01,2013-01-13 11:50:00,
2013-01-13 06:55:00,35.4,34.9,29.68,SW,225,0.0,0.0,98,0.00,,---,0.00,VWS V14.01,2013-01-13 11:55:00,
2013-01-13 07:00:00,35.4,34.9,29.68,SW,225,0.0,0.0,98,0.00,,---,0.00,VWS V14.01,2013-01-13 12:00:00,
2013-01-13 07:05:00,35.4,34.9,29.74,SW,225,0.0,0.0,98,0.00,,---,0.00,VWS V14.01,2013-01-13 12:05:00,
2013-01-13 07:10:00,35.4,34.9,29.74,SW,225,0.0,0.0,98,0.00,,---,0.00,VWS V14.01,2013-01-13 12:10:00,
2013-01-13 07:15:00,35.2,34.7,29.74,SW,225,0.0,0.0,98,0.00,,---,0.00,VWS V14.01,2013-01-13 12:15:00,
2013-01-13 07:20:00,35.2,34.7,29.71,SW,225,0.0,0.0,98,0.00,,---,0.00,VWS V14.01,2013-01-13 12:20:00,
2013-01-13 07:25:00,35.2,34.7,29.71,SW,225,0.0,0.0,98,0.00,,---,0.00,VWS V14.01,2013-01-13 12:25:00,
2013-01-13 07:30:00,35.4,34.9,29.71,SW,225,0.0,0.0,98,0.00,,---,0.00,VWS V14.01,2013-01-13 12:30:00,
2013-01-13 07:35:00,35.4,34.9,29.76,SW,225,0.0,0.0,98,0.00,,---,0.00,VWS V14.01,2013-01-13 12:35:00,
2013-01-13 07:40:00,35.4,34.9,29.76,SW,225,0.0,0.0,98,0.00,,---,0.00,VWS V14.01,2013-01-13 12:40:00,
2013-01-13 07:45:00,35.4,34.9,29.76,SW,225,0.0,0.0,98,0.00,,---,0.00,VWS V14.01,2013-01-13 12:45:00,
2013-01-13 07:50:00,35.4,34.9,29.76,SW,225,0.0,0.0,98,0.00,,---,0.00,VWS V14.01,2013-01-13 12:50:00,
2013-01-13 07:55:00,35.4,34.9,29.76,SW,225,0.0,0.0,98,0.00,,---,0.00,VWS V14.01,2013-01-13 12:55:00,
2013-01-13 08:00:00,35.2,34.7,29.76,SW,225,0.0,0.0,98,0.00,,---,0.00,VWS V14.01,2013-01-13 13:00:00,
2013-01-13 08:05:00,35.2,34.7,29.74,SW,225,0.0,0.0,98,0.00,,---,0.00,VWS V14.01,2013-01-13 13:05:00,
2013-01-13 08:10:00,35.2,34.7,29.74,SW,225,0.0,0.0,98,0.00,,---,0.00,VWS V14.01,2013-01-13 13:10:00,
2013-01-13 08:15:00,35.4,34.9,29.74,SW,225,0.0,0.0,98,0.00,,---,0.00,VWS V14.01,2013-01-13 13:15:00,
2013-01-13 08:20:00,35.4,34.9,29.76,SW,225,0.0,0.0,98,0.00,,---,0.00,VWS V14.01,2013-01-13 13:20:00,
2013-01-13 08:25:00,35.4,34.9,29.76,SW,225,0.0,0.0,98,0.00,,---,0.00,VWS V14.01,2013-01-13 13:25:00,
2013-01-13 08:30:00,35.4,34.9,29.76,SW,225,0.0,0.0,98,0.00,,---,0.00,VWS V14.01,2013-01-13 13:30:00,
2013-01-13 08:35:00,35.4,34.9,29.76,SW,225,0.0,0.0,98,0.00,,---,0.00,VWS V14.01,2013-01-13 13:35:00,
2013-01-13 08:40:00,35.4,34.9,29.76,SW,225,0.0,0.0,98,0.00,,---,0.00,VWS V14.01,2013-01-13 13:40:00,
2013-01-13 08:45:00,35.6,35.1,29.76,SW,225,0.0,0.0,98,0.00,,---,0.00,VWS V14.01,2013-01-13 13:45:00,
2013-01-13 08:50:00,35.6,35.1,29.76,SW,225,0.0,0.0,98,0.00,,---,0.00,VWS V14.01,2013-01-13 13:50:00,
2013-01-13 08:55:00,35.6,35.1,29.76,SW,225,0.0,0.0,98,0.00,,---,0.00,VWS V14.01,2013-01-13 13:55:00,
2013-01-13 09:00:00,35.8,35.3,29.76,SW,225,0.0,0.0,98,0.00,,---,0.00,VWS V14.01,2013-01-13 14:00:00,
2013-01-13 09:05:00,35.8,35.3,29.74,SW,225,0.0,0.0,98,0.00,,---,0.00,VWS V14.01,2013-01-13 14:05:00,
2013-01-13 09:10:00,35.8,35.3,29.74,SW,225,0.0,0.0,98,0.00,,---,0.00,VWS V14.01,2013-01-13 14:10:00,
2013-01-13 09:15:00,35.8,35.3,29.74,SW,225,0.0,0.0,98,0.00,,---,0.00,VWS V14.01,2013-01-13 14:15:00,
2013-01-13 09:20:00,36.0,35.5,29.74,SW,225,0.0,0.0,98,0.00,,---,0.00,VWS V14.01,2013-01-13 14:20:00,
2013-01-13 09:25:00,36.0,35.5,29.74,SW,225,0.0,0.0,98,0.00,,---,0.00,VWS V14.01,2013-01-13 14:25:00,
2013-01-13 09:30:00,36.0,35.5,29.74,SW,225,0.0,0.0,98,0.00,,---,0.00,VWS V14.01,2013-01-13 14:30:00,
2013-01-13 09:35:00,36.1,35.6,29.76,SW,225,0.0,0.0,98,0.00,,---,0.00,VWS V14.01,2013-01-13 14:35:00,
2013-01-13 09:40:00,36.1,35.6,29.76,SW,225,0.0,0.0,98,0.00,,---,0.00,VWS V14.01,2013-01-13 14:40:00,
2013-01-13 09:45:00,36.1,35.6,29.76,SW,225,0.0,0.0,98,0.00,,---,0.00,VWS V14.01,2013-01-13 14:45:00,
2013-01-13 09:50:00,36.3,35.8,29.76,SW,225,0.0,0.0,98,0.00,,---,0.00,VWS V14.01,2013-01-13 14:50:00,
2013-01-13 09:55:00,36.3,35.8,29.76,SW,225,0.0,0.0,98,0.00,,---,0.00,VWS V14.01,2013-01-13 14:55:00,
2013-01-13 10:00:00,36.3,35.8,29.76,SW,225,0.0,0.0,98,0.00,,---,0.00,VWS V14.01,2013-01-13 15:00:00,
2013-01-13 10:05:00,36.3,35.8,29.76,SW,225,0.0,0.0,98,0.00,,---,0.00,VWS V14.01,2013-01-13 15:05:00,
2013-01-13 10:10:00,36.5,36.0,29.76,SW,225,0.0,0.0,98,0.00,,---,0.00,VWS V14.01,2013-01-13 15:10:00,
2013-01-13 10:15:00,36.5,36.0,29.76,SW,225,0.0,0.0,98,0.00,,---,0.00,VWS V14.01,2013-01-13 15:15:00,
2013-01-13 10:20:00,36.7,36.2,29.76,SW,225,0.0,0.0,98,0.00,,---,0.00,VWS V14.01,2013-01-13 15:20:00,
2013-01-13 10:25:00,36.7,36.2,29.76,SW,225,0.0,0.0,98,0.00,,---,0.00,VWS V14.01,2013-01-13 15:25:00,
2013-01-13 10:30:00,36.7,36.2,29.76,SW,225,0.0,0.0,98,0.00,,---,0.00,VWS V14.01,2013-01-13 15:30:00,
2013-01-13 10:35:00,36.9,36.3,29.79,SW,225,0.0,0.0,98,0.00,,---,0.00,VWS V14.01,2013-01-13 15:35:00,
2013-01-13 10:40:00,36.9,36.3,29.79,SW,225,0.0,0.0,98,0.00,,---,0.00,VWS V14.01,2013-01-13 15:40:00,
2013-01-13 10:44:00,36.9,36.3,29.79,SW,225,0.0,0.0,98,0.00,,---,0.00,VWS V14.01,2013-01-13 15:44:00,
2013-01-13 10:49:00,36.9,36.3,29.79,SW,225,0.0,0.0,98,0.00,,---,0.00,VWS V14.01,2013-01-13 15:49:00,
2013-01-13 10:54:00,36.9,36.3,29.79,SW,225,0.0,0.0,98,0.00,,---,0.00,VWS V14.01,2013-01-13 15:54:00,
2013-01-13 10:59:00,37.0,36.5,29.79,SW,225,0.0,0.0,98,0.00,,---,0.00,VWS V14.01,2013-01-13 15:59:00,
2013-01-13 11:04:00,37.0,36.5,29.82,SW,225,0.0,0.0,98,0.00,,---,0.00,VWS V14.01,2013-01-13 16:04:00,
2013-01-13 11:09:00,37.0,36.5,29.82,SW,225,0.0,0.0,98,0.00,,---,0.00,VWS V14.01,2013-01-13 16:09:00,
2013-01-13 11:14:00,37.0,36.5,29.82,SW,225,0.0,0.0,98,0.00,,---,0.00,VWS V14.01,2013-01-13 16:14:00,
2013-01-13 11:19:00,37.0,36.5,29.82,SW,225,0.0,0.0,98,0.00,,---,0.00,VWS V14.01,2013-01-13 16:19:00,
2013-01-13 11:24:00,37.0,36.5,29.82,SW,225,0.0,0.0,98,0.00,,---,0.00,VWS V14.01,2013-01-13 16:24:00,
2013-01-13 11:29:00,37.0,36.5,29.82,SW,225,0.0,0.0,98,0.00,,---,0.00,VWS V14.01,2013-01-13 16:29:00,
2013-01-13 11:34:00,37.2,36.7,29.82,SW,225,0.0,0.0,98,0.00,,---,0.00,VWS V14.01,2013-01-13 16:34:00,
2013-01-13 11:39:00,37.2,36.7,29.82,SW,225,0.0,0.0,98,0.00,,---,0.00,VWS V14.01,2013-01-13 16:39:00,
2013-01-13 11:44:00,37.2,36.7,29.82,SW,225,0.0,0.0,98,0.00,,---,0.00,VWS V14.01,2013-01-13 16:44:00,
2013-01-13 11:49:00,37.4,36.9,29.79,SW,225,0.0,0.0,98,0.00,,---,0.00,VWS V14.01,2013-01-13 16:49:00,
2013-01-13 11:54:00,37.6,37.1,29.79,SW,225,0.0,0.0,98,0.00,,---,0.00,VWS V14.01,2013-01-13 16:54:00,
2013-01-13 11:59:00,37.6,37.1,29.79,SW,225,0.0,0.0,98,0.00,,---,0.00,VWS V14.01,2013-01-13 16:59:00,
2013-01-13 12:04:00,37.6,37.1,29.79,SW,225,0.0,0.0,98,0.00,,---,0.00,VWS V14.01,2013-01-13 17:04:00,
2013-01-13 12:09:00,37.6,37.1,29.79,SW,225,0.0,0.0,98,0.00,,---,0.00,VWS V14.01,2013-01-13 17:09:00,
2013-01-13 12:14:00,37.6,37.1,29.79,SW,225,0.0,0.0,98,0.00,,---,0.00,VWS V14.01,2013-01-13 17:14:00,
2013-01-13 12:19:00,37.6,37.1,29.79,SW,225,0.0,0.0,98,0.00,,---,0.00,VWS V14.01,2013-01-13 17:19:00,
2013-01-13 12:24:00,37.6,37.1,29.79,SW,225,0.0,0.0,98,0.00,,---,0.00,VWS V14.01,2013-01-13 17:24:00,
2013-01-13 12:29:00,37.6,36.8,29.79,SW,225,0.0,0.0,97,0.00,,---,0.00,VWS V14.01,2013-01-13 17:29:00,
2013-01-13 12:34:00,37.6,37.1,29.79,SW,225,0.0,0.0,98,0.00,,---,0.00,VWS V14.01,2013-01-13 17:34:00,
2013-01-13 12:39:00,37.6,37.1,29.79,SW,225,0.0,0.0,98,0.00,,---,0.00,VWS V14.01,2013-01-13 17:39:00,
2013-01-13 12:44:00,37.6,36.8,29.79,SW,225,0.0,0.0,97,0.00,,---,0.00,VWS V14.01,2013-01-13 17:44:00,
2013-01-13 12:49:00,37.4,36.6,29.71,SW,225,0.0,0.0,97,0.00,,---,0.00,VWS V14.01,2013-01-13 17:49:00,
2013-01-13 12:54:00,37.4,36.6,29.71,SW,225,0.0,0.0,97,0.00,,---,0.00,VWS V14.01,2013-01-13 17:54:00,
2013-01-13 12:59:00,37.4,36.9,29.71,SW,225,0.0,0.0,98,0.00,,---,0.00,VWS V14.01,2013-01-13 17:59:00,
2013-01-13 13:04:00,37.6,37.1,29.76,SW,225,0.0,0.0,98,0.00,,---,0.00,VWS V14.01,2013-01-13 18:04:00,
2013-01-13 13:09:00,37.6,37.1,29.76,SW,225,0.0,0.0,98,0.00,,---,0.00,VWS V14.01,2013-01-13 18:09:00,
2013-01-13 13:14:00,37.6,37.1,29.76,SW,225,0.0,0.0,98,0.00,,---,0.00,VWS V14.01,2013-01-13 18:14:00,
2013-01-13 13:19:00,37.6,37.1,29.82,SW,225,0.0,0.0,98,0.00,,---,0.00,VWS V14.01,2013-01-13 18:19:00,
2013-01-13 13:24:00,37.4,36.9,29.82,SW,225,0.0,0.0,98,0.00,,---,0.00,VWS V14.01,2013-01-13 18:24:00,
2013-01-13 13:29:00,37.4,36.9,29.82,SW,225,0.0,0.0,98,0.00,,---,0.00,VWS V14.01,2013-01-13 18:29:00,
2013-01-13 13:34:00,37.2,36.7,29.82,SW,225,0.0,0.0,98,0.00,,---,0.00,VWS V14.01,2013-01-13 18:34:00,
2013-01-13 13:39:00,37.0,36.5,29.82,SW,225,0.0,0.0,98,0.00,,---,0.00,VWS V14.01,2013-01-13 18:39:00,
2013-01-13 13:44:00,37.0,36.5,29.82,SW,225,0.0,0.0,98,0.00,,---,0.00,VWS V14.01,2013-01-13 18:44:00,
2013-01-13 13:49:00,36.9,36.1,29.82,SW,225,0.0,0.0,97,0.00,,---,0.00,VWS V14.01,2013-01-13 18:49:00,
2013-01-13 13:54:00,36.9,36.1,29.82,SW,225,0.0,0.0,97,0.00,,---,0.00,VWS V14.01,2013-01-13 18:54:00,
2013-01-13 13:59:00,36.7,35.9,29.82,SW,225,0.0,0.0,97,0.00,,---,0.00,VWS V14.01,2013-01-13 18:59:00,
2013-01-13 14:04:00,36.7,35.9,29.79,SW,225,0.0,0.0,97,0.00,,---,0.00,VWS V14.01,2013-01-13 19:04:00,
2013-01-13 14:09:00,36.5,35.7,29.79,SW,225,0.0,0.0,97,0.00,,---,0.00,VWS V14.01,2013-01-13 19:09:00,
2013-01-13 14:14:00,36.3,35.5,29.79,SW,225,0.0,0.0,97,0.00,,---,0.00,VWS V14.01,2013-01-13 19:14:00,
2013-01-13 14:19:00,36.3,35.5,29.79,SW,225,0.0,0.0,97,0.00,,---,0.00,VWS V14.01,2013-01-13 19:19:00,
2013-01-13 14:24:00,36.1,35.4,29.79,SW,225,0.0,0.0,97,0.00,,---,0.00,VWS V14.01,2013-01-13 19:24:00,
2013-01-13 14:29:00,36.1,35.4,29.79,SW,225,0.0,0.0,97,0.00,,---,0.00,VWS V14.01,2013-01-13 19:29:00,
2013-01-13 14:34:00,36.1,35.4,29.74,SW,225,0.0,0.0,97,0.00,,---,0.00,VWS V14.01,2013-01-13 19:34:00,
2013-01-13 14:39:00,36.1,35.4,29.74,SW,225,0.0,0.0,97,0.00,,---,0.00,VWS V14.01,2013-01-13 19:39:00,
2013-01-13 14:44:00,36.1,35.4,29.74,SW,225,0.0,0.0,97,0.00,,---,0.00,VWS V14.01,2013-01-13 19:44:00,
2013-01-13 14:49:00,36.0,35.2,29.76,SW,225,0.0,0.0,97,0.00,,---,0.00,VWS V14.01,2013-01-13 19:49:00,
2013-01-13 14:54:00,36.0,35.2,29.76,SW,225,0.0,0.0,97,0.00,,---,0.00,VWS V14.01,2013-01-13 19:54:00,
2013-01-13 14:59:00,36.0,35.2,29.76,SW,225,0.0,0.0,97,0.00,,---,0.00,VWS V14.01,2013-01-13 19:59:00,
2013-01-13 15:04:00,35.8,35.0,29.74,SW,225,0.0,0.0,97,0.00,,---,0.00,VWS V14.01,2013-01-13 20:04:00,
2013-01-13 15:09:00,35.8,35.0,29.74,SW,225,0.0,0.0,97,0.00,,---,0.00,VWS V14.01,2013-01-13 20:09:00,
2013-01-13 15:14:00,35.8,35.3,29.74,SW,225,0.0,0.0,98,0.00,,---,0.00,VWS V14.01,2013-01-13 20:14:00,
2013-01-13 15:19:00,35.8,35.3,29.79,SW,225,0.0,0.0,98,0.00,,---,0.00,VWS V14.01,2013-01-13 20:19:00,
2013-01-13 15:24:00,35.8,35.3,29.79,SW,225,0.0,0.0,98,0.00,,---,0.00,VWS V14.01,2013-01-13 20:24:00,
2013-01-13 15:29:00,35.8,35.3,29.79,SW,225,0.0,0.0,98,0.00,,---,0.00,VWS V14.01,2013-01-13 20:29:00,
2013-01-13 15:34:00,35.8,35.3,29.82,SW,225,0.0,0.0,98,0.00,,---,0.00,VWS V14.01,2013-01-13 20:34:00,
2013-01-13 15:39:00,35.8,35.3,29.82,SW,225,0.0,0.0,98,0.00,,---,0.00,VWS V14.01,2013-01-13 20:39:00,
2013-01-13 15:44:00,35.6,35.1,29.82,SW,225,0.0,0.0,98,0.00,,---,0.00,VWS V14.01,2013-01-13 20:44:00,
2013-01-13 15:49:00,35.6,34.8,29.82,SW,225,0.0,0.0,97,0.00,,---,0.00,VWS V14.01,2013-01-13 20:49:00,
2013-01-13 15:54:00,35.6,35.1,29.82,SW,225,0.0,0.0,98,0.00,,---,0.00,VWS V14.01,2013-01-13 20:54:00,
2013-01-13 15:59:00,35.4,34.9,29.82,SW,225,0.0,0.0,98,0.00,,---,0.00,VWS V14.01,2013-01-13 20:59:00,
2013-01-13 16:04:00,35.4,34.9,29.85,SW,225,0.0,0.0,98,0.00,,---,0.00,VWS V14.01,2013-01-13 21:04:00,
2013-01-13 16:09:00,35.4,34.9,29.85,SW,225,0.0,0.0,98,0.00,,---,0.00,VWS V14.01,2013-01-13 21:09:00,
2013-01-13 16:14:00,35.4,34.9,29.85,SW,225,0.0,0.0,98,0.00,,---,0.00,VWS V14.01,2013-01-13 21:14:00,
2013-01-13 16:19:00,35.4,34.9,29.85,SW,225,0.0,0.0,98,0.00,,---,0.00,VWS V14.01,2013-01-13 21:19:00,
2013-01-13 16:24:00,35.2,34.7,29.85,SW,225,0.0,0.0,98,0.00,,---,0.00,VWS V14.01,2013-01-13 21:24:00,
2013-01-13 16:29:00,35.1,34.5,29.85,SW,225,0.0,0.0,98,0.00,,---,0.00,VWS V14.01,2013-01-13 21:29:00,
2013-01-13 16:34:00,35.1,34.5,29.85,SW,225,0.0,0.0,98,0.00,,---,0.00,VWS V14.01,2013-01-13 21:34:00,
2013-01-13 16:39:00,35.1,34.5,29.85,SW,225,0.0,0.0,98,0.00,,---,0.00,VWS V14.01,2013-01-13 21:39:00,
2013-01-13 16:44:00,35.1,34.5,29.85,SW,225,0.0,0.0,98,0.00,,---,0.00,VWS V14.01,2013-01-13 21:44:00,
2013-01-13 16:49:00,35.1,34.5,29.85,SW,225,0.0,0.0,98,0.00,,---,0.00,VWS V14.01,2013-01-13 21:49:00,
2013-01-13 16:54:00,34.9,34.4,29.85,SW,225,0.0,0.0,98,0.00,,---,0.00,VWS V14.01,2013-01-13 21:54:00,
2013-01-13 16:59:00,34.9,34.4,29.85,SW,225,0.0,0.0,98,0.00,,---,0.00,VWS V14.01,2013-01-13 21:59:00,
2013-01-13 17:04:00,34.7,34.2,29.85,SW,225,0.0,0.0,98,0.00,,---,0.00,VWS V14.01,2013-01-13 22:04:00,
2013-01-13 17:09:00,34.7,34.2,29.85,SW,225,0.0,0.0,98,0.00,,---,0.00,VWS V14.01,2013-01-13 22:09:00,
2013-01-13 17:14:00,34.7,34.2,29.85,SW,225,0.0,0.0,98,0.00,,---,0.00,VWS V14.01,2013-01-13 22:14:00,
2013-01-13 17:19:00,34.5,34.0,29.82,SW,225,0.0,0.0,98,0.00,,---,0.00,VWS V14.01,2013-01-13 22:19:00,
2013-01-13 17:24:00,34.5,34.0,29.82,SW,225,0.0,0.0,98,0.00,,---,0.00,VWS V14.01,2013-01-13 22:24:00,
2013-01-13 17:29:00,34.5,34.0,29.82,SW,225,0.0,0.0,98,0.00,,---,0.00,VWS V14.01,2013-01-13 22:29:00,
2013-01-13 17:34:00,34.5,34.0,29.82,SW,225,0.0,0.0,98,0.00,,---,0.00,VWS V14.01,2013-01-13 22:34:00,
2013-01-13 17:39:00,34.5,34.0,29.82,SW,225,0.0,0.0,98,0.00,,---,0.00,VWS V14.01,2013-01-13 22:39:00,
2013-01-13 17:44:00,34.5,34.0,29.82,SW,225,0.0,0.0,98,0.00,,---,0.00,VWS V14.01,2013-01-13 22:44:00,
2013-01-13 17:49:00,34.5,34.0,29.82,SW,225,0.0,0.0,98,0.00,,---,0.00,VWS V14.01,2013-01-13 22:49:00,
2013-01-13 17:54:00,34.5,34.0,29.82,SW,225,0.0,0.0,98,0.00,,---,0.00,VWS V14.01,2013-01-13 22:54:00,
2013-01-13 17:59:00,34.5,34.0,29.82,SW,225,0.0,0.0,98,0.00,,---,0.00,VWS V14.01,2013-01-13 22:59:00,
2013-01-13 18:04:00,34.3,33.8,29.82,SW,225,0.0,0.0,98,0.00,,---,0.00,VWS V14.01,2013-01-13 23:04:00,
2013-01-13 18:09:00,34.3,33.8,29.82,SW,225,0.0,0.0,98,0.00,,---,0.00,VWS V14.01,2013-01-13 23:09:00,
2013-01-13 18:14:00,34.3,33.8,29.82,SW,225,0.0,0.0,98,0.00,,---,0.00,VWS V14.01,2013-01-13 23:14:00,
2013-01-13 18:19:00,34.3,33.8,29.82,SW,225,0.0,0.0,98,0.00,,---,0.00,VWS V14.01,2013-01-13 23:19:00,
2013-01-13 18:24:00,34.3,33.8,29.82,SW,225,0.0,0.0,98,0.00,,---,0.00,VWS V14.01,2013-01-13 23:24:00,
2013-01-13 18:28:00,34.3,33.8,29.82,SW,225,0.0,0.0,98,0.00,,---,0.00,VWS V14.01,2013-01-13 23:28:00,
2013-01-13 18:33:00,34.3,33.8,29.82,SW,225,0.0,0.0,98,0.00,,---,0.00,VWS V14.01,2013-01-13 23:33:00,
2013-01-13 18:38:00,34.3,33.8,29.82,SW,225,0.0,0.0,98,0.00,,---,0.00,VWS V14.01,2013-01-13 23:38:00,
2013-01-13 18:43:00,34.3,33.8,29.82,SW,225,0.0,0.0,98,0.00,,---,0.00,VWS V14.01,2013-01-13 23:43:00,
2013-01-13 18:48:00,34.3,33.8,29.79,SW,225,0.0,0.0,98,0.00,,---,0.00,VWS V14.01,2013-01-13 23:48:00,
2013-01-13 18:53:00,34.3,33.8,29.79,SW,225,0.0,0.0,98,0.00,,---,0.00,VWS V14.01,2013-01-13 23:53:00,
2013-01-13 18:58:00,34.3,33.8,29.79,SW,225,0.0,0.0,98,0.00,,---,0.00,VWS V14.01,2013-01-13 23:58:00,
2013-01-13 19:03:00,34.3,33.8,29.82,SW,225,0.0,0.0,98,0.00,,---,0.00,VWS V14.01,2013-01-14 00:03:00,
2013-01-13 19:08:00,34.3,33.8,29.82,SW,225,0.0,0.0,98,0.00,,---,0.00,VWS V14.01,2013-01-14 00:08:00,
2013-01-13 19:13:00,34.3,33.8,29.82,SW,225,0.0,0.0,98,0.00,,---,0.00,VWS V14.01,2013-01-14 00:13:00,
2013-01-13 19:18:00,34.3,33.8,29.85,SW,225,0.0,0.0,98,0.00,,---,0.00,VWS V14.01,2013-01-14 00:18:00,
2013-01-13 19:23:00,34.2,33.7,29.85,SW,225,0.0,0.0,98,0.00,,---,0.00,VWS V14.01,2013-01-14 00:23:00,
2013-01-13 19:28:00,34.0,33.5,29.85,SW,225,0.0,0.0,98,0.00,,---,0.00,VWS V14.01,2013-01-14 00:28:00,
2013-01-13 19:33:00,33.8,33.3,29.85,SW,225,0.0,0.0,98,0.00,,---,0.00,VWS V14.01,2013-01-14 00:33:00,
2013-01-13 19:38:00,33.6,33.1,29.85,SW,225,0.0,0.0,98,0.00,,---,0.00,VWS V14.01,2013-01-14 00:38:00,
2013-01-13 19:43:00,33.4,32.9,29.85,SW,225,0.0,0.0,98,0.00,,---,0.00,VWS V14.01,2013-01-14 00:43:00,
2013-01-13 19:48:00,33.3,32.8,29.85,SW,225,0.0,0.0,98,0.00,,---,0.00,VWS V14.01,2013-01-14 00:48:00,
2013-01-13 19:53:00,33.3,32.8,29.85,SW,225,0.0,0.0,98,0.00,,---,0.00,VWS V14.01,2013-01-14 00:53:00,
2013-01-13 19:58:00,33.1,32.6,29.85,SW,225,0.0,0.0,98,0.00,,---,0.00,VWS V14.01,2013-01-14 00:58:00,
2013-01-13 20:03:00,33.1,32.6,29.85,SW,225,0.0,0.0,98,0.00,,---,0.00,VWS V14.01,2013-01-14 01:03:00,
2013-01-13 20:08:00,32.9,32.4,29.85,SW,225,0.0,0.0,98,0.00,,---,0.00,VWS V14.01,2013-01-14 01:08:00,
2013-01-13 20:13:00,32.7,32.2,29.85,SW,225,0.0,0.0,98,0.00,,---,0.00,VWS V14.01,2013-01-14 01:13:00,
2013-01-13 20:18:00,32.7,32.2,29.85,SW,225,0.0,0.0,98,0.00,,---,0.00,VWS V14.01,2013-01-14 01:18:00,
2013-01-13 20:23:00,32.5,32.0,29.85,SW,225,0.0,0.0,98,0.00,,---,0.00,VWS V14.01,2013-01-14 01:23:00,
2013-01-13 20:28:00,32.5,32.0,29.85,SW,225,0.0,0.0,98,0.00,,---,0.00,VWS V14.01,2013-01-14 01:28:00,
2013-01-13 20:33:00,32.5,32.0,29.85,SW,225,0.0,0.0,98,0.00,,---,0.00,VWS V14.01,2013-01-14 01:33:00,
2013-01-13 20:38:00,32.4,31.9,29.85,SW,225,0.0,0.0,98,0.00,,---,0.00,VWS V14.01,2013-01-14 01:38:00,
2013-01-13 20:43:00,32.4,31.9,29.85,SW,225,0.0,0.0,98,0.00,,---,0.00,VWS V14.01,2013-01-14 01:43:00,
2013-01-13 20:48:00,32.4,31.9,29.85,SW,225,0.0,0.0,98,0.00,,---,0.00,VWS V14.01,2013-01-14 01:48:00,
2013-01-13 20:53:00,32.2,31.7,29.85,SW,225,0.0,0.0,98,0.00,,---,0.00,VWS V14.01,2013-01-14 01:53:00,
2013-01-13 20:58:00,32.2,31.7,29.85,SW,225,0.0,0.0,98,0.00,,---,0.00,VWS V14.01,2013-01-14 01:58:00,
2013-01-13 21:03:00,32.2,31.7,29.88,SW,225,0.0,0.0,98,0.00,,---,0.00,VWS V14.01,2013-01-14 02:03:00,
2013-01-13 21:08:00,32.2,31.7,29.88,SW,225,0.0,0.0,98,0.00,,---,0.00,VWS V14.01,2013-01-14 02:08:00,
2013-01-13 21:13:00,32.2,31.7,29.88,SW,225,0.0,0.0,98,0.00,,---,0.00,VWS V14.01,2013-01-14 02:13:00,
2013-01-13 21:18:00,32.0,31.5,29.88,SW,225,0.0,0.0,98,0.00,,---,0.00,VWS V14.01,2013-01-14 02:18:00,
2013-01-13 21:23:00,32.0,31.5,29.88,SW,225,0.0,0.0,98,0.00,,---,0.00,VWS V14.01,2013-01-14 02:23:00,
2013-01-13 21:28:00,32.0,31.5,29.88,SW,225,0.0,0.0,98,0.00,,---,0.00,VWS V14.01,2013-01-14 02:28:00,
2013-01-13 21:33:00,31.8,31.3,29.88,SW,225,0.0,0.0,98,0.00,,---,0.00,VWS V14.01,2013-01-14 02:33:00,
2013-01-13 21:38:00,31.6,31.1,29.88,SW,225,0.0,0.0,98,0.00,,---,0.00,VWS V14.01,2013-01-14 02:38:00,
2013-01-13 21:43:00,31.6,31.1,29.88,SW,225,0.0,0.0,98,0.00,,---,0.00,VWS V14.01,2013-01-14 02:43:00,
2013-01-13 21:48:00,31.5,31.0,29.88,SW,225,0.0,0.0,98,0.00,,---,0.00,VWS V14.01,2013-01-14 02:48:00,
2013-01-13 21:53:00,31.3,30.8,29.88,SW,225,0.0,0.0,98,0.00,,---,0.00,VWS V14.01,2013-01-14 02:53:00,
2013-01-13 21:58:00,31.3,30.8,29.88,SW,225,0.0,0.0,98,0.00,,---,0.00,VWS V14.01,2013-01-14 02:58:00,
2013-01-13 22:03:00,31.3,30.8,29.88,SW,225,0.0,0.0,98,0.00,,---,0.00,VWS V14.01,2013-01-14 03:03:00,
2013-01-13 22:08:00,31.1,30.6,29.88,SW,225,0.0,0.0,98,0.00,,---,0.00,VWS V14.01,2013-01-14 03:08:00,
2013-01-13 22:13:00,30.7,30.2,29.88,SW,225,0.0,0.0,98,0.00,,---,0.00,VWS V14.01,2013-01-14 03:13:00,
2013-01-13 22:18:00,30.7,30.2,29.85,SW,225,0.0,0.0,98,0.00,,---,0.00,VWS V14.01,2013-01-14 03:18:00,
2013-01-13 22:23:00,30.6,30.1,29.85,SW,225,0.0,0.0,98,0.00,,---,0.00,VWS V14.01,2013-01-14 03:23:00,
2013-01-13 22:28:00,30.4,29.9,29.85,SW,225,0.0,0.0,98,0.00,,---,0.00,VWS V14.01,2013-01-14 03:28:00,
2013-01-13 22:33:00,30.4,29.9,29.88,SW,225,0.0,0.0,98,0.00,,---,0.00,VWS V14.01,2013-01-14 03:33:00,
2013-01-13 22:38:00,30.4,29.9,29.88,SW,225,0.0,0.0,98,0.00,,---,0.00,VWS V14.01,2013-01-14 03:38:00,
2013-01-13 22:43:00,30.2,29.7,29.88,SW,225,0.0,0.0,98,0.00,,---,0.00,VWS V14.01,2013-01-14 03:43:00,
2013-01-13 22:48:00,30.2,29.7,29.88,SW,225,0.0,0.0,98,0.00,,---,0.00,VWS V14.01,2013-01-14 03:48:00,
2013-01-13 22:53:00,30.0,29.5,29.88,SW,225,0.0,0.0,98,0.00,,---,0.00,VWS V14.01,2013-01-14 03:53:00,
2013-01-13 22:58:00,29.8,29.3,29.88,SW,225,0.0,0.0,98,0.00,,---,0.00,VWS V14.01,2013-01-14 03:58:00,
2013-01-13 23:03:00,29.8,29.3,29.88,SW,225,0.0,0.0,98,0.00,,---,0.00,VWS V14.01,2013-01-14 04:03:00,
2013-01-13 23:08:00,29.5,29.0,29.88,SW,225,0.0,0.0,98,0.00,,---,0.00,VWS V14.01,2013-01-14 04:08:00,
2013-01-13 23:13:00,29.5,29.0,29.88,SW,225,0.0,0.0,98,0.00,,---,0.00,VWS V14.01,2013-01-14 04:13:00,
2013-01-13 23:18:00,29.3,28.8,29.91,SW,225,0.0,0.0,98,0.00,,---,0.00,VWS V14.01,2013-01-14 04:18:00,
2013-01-13 23:23:00,29.1,28.6,29.91,SW,225,0.0,0.0,98,0.00,,---,0.00,VWS V14.01,2013-01-14 04:23:00,
2013-01-13 23:28:00,28.9,28.5,29.91,SW,225,0.0,0.0,98,0.00,,---,0.00,VWS V14.01,2013-01-14 04:28:00,
2013-01-13 23:33:00,28.8,28.3,29.91,SW,225,0.0,0.0,98,0.00,,---,0.00,VWS V14.01,2013-01-14 04:33:00,
2013-01-13 23:38:00,28.6,28.1,29.91,SW,225,0.0,0.0,98,0.00,,---,0.00,VWS V14.01,2013-01-14 04:38:00,
2013-01-13 23:43:00,28.4,27.9,29.91,SW,225,0.0,0.0,98,0.00,,---,0.00,VWS V14.01,2013-01-14 04:43:00,
2013-01-13 23:48:00,28.2,27.7,29.94,SW,225,0.0,0.0,98,0.00,,---,0.00,VWS V14.01,2013-01-14 04:48:00,
2013-01-13 23:53:00,28.0,27.3,29.94,SW,225,0.0,0.0,97,0.00,,---,0.00,VWS V14.01,2013-01-14 04:53:00,
2013-01-13 23:58:00,27.9,27.1,29.94,SW,225,0.0,0.0,97,0.00,,---,0.00,VWS V14.01,2013-01-14 04:58:00,